createdAt,value
2023-03-05T00:03:02.694Z,4.61
2023-03-05T00:06:09.358Z,4.84
2023-03-05T00:09:15.898Z,4.84
2023-03-05T00:12:22.240Z,5.14
2023-03-05T00:15:28.449Z,5.17
2023-03-05T00:18:36.670Z,5.09
2023-03-05T00:21:43.580Z,4.90
2023-03-05T00:24:51.986Z,4.42
2023-03-05T00:27:57.893Z,4.18
2023-03-05T00:31:04.525Z,4.01
2023-03-05T00:34:14.684Z,4.24
2023-03-05T00:37:21.054Z,4.39
2023-03-05T00:40:27.218Z,4.51
2023-03-05T00:43:33.502Z,4.67
2023-03-05T00:46:40.640Z,4.69
2023-03-05T00:49:48.618Z,4.50
2023-03-05T00:52:55.192Z,4.54
2023-03-05T00:56:01.713Z,4.42
2023-03-05T00:59:08.615Z,4.42
2023-03-05T01:02:16.149Z,4.68
2023-03-05T01:05:24.074Z,4.43
2023-03-05T01:08:30.702Z,4.09
2023-03-05T01:11:37.022Z,3.89
2023-03-05T01:14:43.586Z,4.15
2023-03-05T01:17:49.856Z,4.28
2023-03-05T01:20:57.673Z,4.24
2023-03-05T01:24:05.154Z,4.04
2023-03-05T01:27:11.610Z,4.01
2023-03-05T01:30:18.012Z,4.15
2023-03-05T01:33:24.268Z,3.88
2023-03-05T01:36:32.205Z,2.88
2023-03-05T01:39:38.456Z,2.96
2023-03-05T01:42:47.212Z,2.96
2023-03-05T01:46:34.902Z,3.19
2023-03-05T01:49:42.685Z,3.59
2023-03-05T01:52:54.690Z,3.81
2023-03-05T01:56:01.112Z,3.86
2023-03-05T01:59:07.669Z,3.55
2023-03-05T02:02:14.987Z,4.13
2023-03-05T02:05:27.240Z,4.36
2023-03-05T02:08:34.887Z,4.38
2023-03-05T02:11:41.664Z,4.43
2023-03-05T02:14:58.585Z,4.32
2023-03-05T02:18:05.291Z,4.02
2023-03-05T02:21:13.222Z,4.27
2023-03-05T02:24:33.083Z,4.28
2023-03-05T02:27:41.858Z,3.91
2023-03-05T02:30:48.305Z,3.64
2023-03-05T02:33:56.113Z,3.81
2023-03-05T02:37:04.875Z,3.77
2023-03-05T02:40:13.189Z,3.88
2023-03-05T02:43:20.016Z,3.81
2023-03-05T02:46:26.605Z,3.73
2023-03-05T02:49:33.299Z,3.64
2023-03-05T02:52:41.609Z,3.75
2023-03-05T02:55:48.621Z,3.73
2023-03-05T02:58:55.261Z,3.58
2023-03-05T03:02:01.668Z,3.88
2023-03-05T03:05:08.880Z,3.84
2023-03-05T03:08:16.612Z,3.89
2023-03-05T03:11:23.013Z,3.50
2023-03-05T03:14:31.970Z,3.72
2023-03-05T03:17:38.490Z,3.74
2023-03-05T03:20:44.966Z,3.67
2023-03-05T03:23:52.780Z,3.52
2023-03-05T03:26:58.889Z,3.66
2023-03-05T03:30:06.679Z,3.29
2023-03-05T03:33:12.930Z,3.20
2023-03-05T03:36:19.096Z,3.65
2023-03-05T03:39:26.746Z,3.17
2023-03-05T03:42:33.025Z,3.13
2023-03-05T03:45:42.968Z,3.23
2023-03-05T03:48:51.808Z,3.31
2023-03-05T03:51:58.884Z,3.09
2023-03-05T03:55:07.041Z,3.24
2023-03-05T03:58:13.305Z,3.48
2023-03-05T04:01:20.006Z,3.37
2023-03-05T04:04:26.840Z,3.51
2023-03-05T04:07:32.876Z,3.59
2023-03-05T04:10:40.877Z,3.76
2023-03-05T04:13:47.393Z,3.95
2023-03-05T04:16:53.707Z,3.92
2023-03-05T04:20:00.245Z,3.68
2023-03-05T04:23:06.655Z,3.93
2023-03-05T04:26:14.598Z,4.09
2023-03-05T04:29:21.284Z,4.15
2023-03-05T04:32:28.754Z,4.21
2023-03-05T04:35:35.040Z,4.25
2023-03-05T04:38:41.418Z,4.21
2023-03-05T04:41:49.385Z,4.22
2023-03-05T04:44:55.592Z,4.24
2023-03-05T04:48:02.222Z,4.14
2023-03-05T04:51:08.406Z,4.21
2023-03-05T04:54:14.862Z,4.20
2023-03-05T04:57:23.835Z,4.42
2023-03-05T05:00:30.347Z,4.46
2023-03-05T05:03:36.611Z,4.44
2023-03-05T05:06:43.256Z,4.55
2023-03-05T05:09:49.369Z,4.45
2023-03-05T05:12:57.261Z,4.50
2023-03-05T05:16:03.872Z,4.37
2023-03-05T05:19:10.214Z,4.67
2023-03-05T05:22:16.457Z,4.57
2023-03-05T05:25:22.551Z,4.59
2023-03-05T05:28:30.733Z,4.56
2023-03-05T05:31:37.008Z,4.62
2023-03-05T05:34:43.381Z,4.88
2023-03-05T05:37:49.995Z,4.97
2023-03-05T05:40:56.581Z,4.97
2023-03-05T05:44:04.323Z,4.81
2023-03-05T05:47:10.477Z,4.69
2023-03-05T05:50:16.999Z,4.45
2023-03-05T05:53:23.541Z,4.50
2023-03-05T05:56:30.069Z,4.80
2023-03-05T05:59:38.425Z,4.83
2023-03-05T06:02:45.316Z,4.96
2023-03-05T06:05:52.129Z,5.20
2023-03-05T06:08:58.934Z,5.11
2023-03-05T06:12:06.036Z,5.18
2023-03-05T06:15:14.222Z,5.04
2023-03-05T06:18:20.560Z,5.18
2023-03-05T06:21:26.934Z,5.31
2023-03-05T06:24:32.847Z,5.34
2023-03-05T06:27:39.467Z,5.68
2023-03-05T06:30:46.950Z,5.57
2023-03-05T06:33:54.600Z,5.47
2023-03-05T06:37:00.896Z,5.64
2023-03-05T06:40:08.462Z,6.00
2023-03-05T06:43:14.565Z,5.95
2023-03-05T06:46:24.513Z,6.06
2023-03-05T06:49:30.696Z,5.59
2023-03-05T06:52:38.994Z,5.99
2023-03-05T06:55:45.363Z,6.07
2023-03-05T06:58:53.411Z,6.45
2023-03-05T07:02:01.393Z,6.54
2023-03-05T07:05:09.060Z,6.22
2023-03-05T07:08:15.527Z,6.78
2023-03-05T07:11:22.567Z,6.90
2023-03-05T07:14:29.070Z,6.62
2023-03-05T07:17:36.779Z,5.86
2023-03-05T07:20:43.139Z,6.35
2023-03-05T07:23:49.320Z,6.58
2023-03-05T07:26:55.660Z,6.98
2023-03-05T07:30:02.135Z,6.87
2023-03-05T07:33:09.585Z,6.55
2023-03-05T07:36:16.822Z,6.76
2023-03-05T07:39:23.400Z,6.71
2023-03-05T07:42:29.918Z,6.71
2023-03-05T07:45:36.244Z,6.90
2023-03-05T07:48:43.706Z,7.33
2023-03-05T07:51:50.223Z,7.46
2023-03-05T07:54:56.231Z,8.55
2023-03-05T07:58:02.817Z,8.82
2023-03-05T08:01:14.601Z,8.98
2023-03-05T08:04:22.483Z,8.82
2023-03-05T08:07:29.004Z,8.11
2023-03-05T08:10:35.406Z,9.01
2023-03-05T08:13:41.822Z,8.62
2023-03-05T08:16:50.559Z,9.08
2023-03-05T08:20:00.323Z,8.94
2023-03-05T08:23:06.621Z,8.84
2023-03-05T08:26:14.759Z,8.74
2023-03-05T08:29:20.873Z,8.48
2023-03-05T08:32:27.177Z,8.35
2023-03-05T08:35:34.910Z,9.48
2023-03-05T08:38:42.283Z,9.74
2023-03-05T08:41:48.878Z,9.12
2023-03-05T08:44:55.252Z,9.65
2023-03-05T08:48:01.790Z,10.26
2023-03-05T08:51:11.228Z,10.06
2023-03-05T08:54:17.751Z,9.92
2023-03-05T08:57:23.883Z,10.47
2023-03-05T09:00:30.500Z,9.84
2023-03-05T09:03:36.769Z,10.02
2023-03-05T09:06:44.297Z,9.98
2023-03-05T09:09:50.900Z,8.85
2023-03-05T09:12:57.212Z,10.13
2023-03-05T09:16:06.517Z,9.94
2023-03-05T09:19:15.266Z,9.93
2023-03-05T09:22:23.275Z,10.70
2023-03-05T09:25:29.299Z,10.97
2023-03-05T09:28:35.412Z,11.24
2023-03-05T09:31:41.692Z,10.56
2023-03-05T09:34:48.307Z,10.44
2023-03-05T09:37:56.037Z,11.01
2023-03-05T09:41:08.067Z,11.17
2023-03-05T09:44:27.548Z,11.06
2023-03-05T09:47:47.507Z,10.94
2023-03-05T09:51:00.409Z,11.72
2023-03-05T09:54:13.760Z,11.79
2023-03-05T09:57:25.510Z,11.29
2023-03-05T10:00:37.438Z,11.57
2023-03-05T10:03:53.200Z,11.84
2023-03-05T10:07:06.866Z,11.97
2023-03-05T10:10:22.648Z,12.61
2023-03-05T10:13:34.098Z,12.67
2023-03-05T10:16:57.440Z,12.07
2023-03-05T10:20:25.692Z,12.16
2023-03-05T10:23:49.905Z,11.89
2023-03-05T10:27:06.507Z,11.41
2023-03-05T10:30:35.392Z,11.28
2023-03-05T10:33:50.641Z,11.40
2023-03-05T10:37:17.089Z,11.75
2023-03-05T10:40:32.741Z,12.22
2023-03-05T10:43:49.288Z,12.43
2023-03-05T10:46:59.495Z,12.29
2023-03-05T10:50:17.271Z,11.71
2023-03-05T10:53:29.300Z,12.68
2023-03-05T10:56:35.574Z,12.13
2023-03-05T10:59:48.092Z,10.96
2023-03-05T11:02:58.074Z,11.36
2023-03-05T11:06:05.031Z,11.93
2023-03-05T11:09:32.300Z,10.98
2023-03-05T11:12:39.847Z,11.47
2023-03-05T11:16:01.409Z,10.67
2023-03-05T11:19:26.948Z,10.23
2023-03-05T11:22:36.035Z,11.03
2023-03-05T11:25:58.267Z,10.74
2023-03-05T11:29:10.991Z,10.16
2023-03-05T11:32:23.027Z,10.29
2023-03-05T11:35:34.962Z,10.44
2023-03-05T11:38:52.274Z,11.47
2023-03-05T11:42:01.967Z,11.19
2023-03-05T11:45:15.723Z,11.94
2023-03-05T11:48:28.277Z,11.53
2023-03-05T11:51:41.643Z,11.87
2023-03-05T11:54:58.179Z,11.07
2023-03-05T11:58:23.293Z,11.05
2023-03-05T12:01:33.650Z,11.13
2023-03-05T12:04:41.192Z,10.87
2023-03-05T12:07:51.540Z,10.77
2023-03-05T12:10:59.461Z,10.97
2023-03-05T12:14:12.065Z,10.78
2023-03-05T12:17:25.584Z,10.89
2023-03-05T12:20:42.544Z,12.09
2023-03-05T12:23:59.108Z,12.09
2023-03-05T12:27:11.748Z,13.05
2023-03-05T12:30:56.825Z,11.94
2023-03-05T12:34:51.936Z,11.87
2023-03-05T12:38:32.498Z,12.99
2023-03-05T12:41:39.746Z,11.92
2023-03-05T12:44:45.681Z,12.48
2023-03-05T12:48:31.467Z,11.30
2023-03-05T12:51:41.030Z,12.00
2023-03-05T12:55:04.950Z,11.89
2023-03-05T12:58:14.825Z,11.48
2023-03-05T13:01:37.450Z,11.72
2023-03-05T13:04:47.264Z,11.64
2023-03-05T13:07:53.568Z,11.67
2023-03-05T13:11:03.829Z,11.93
2023-03-05T13:14:32.086Z,11.97
2023-03-05T13:17:44.456Z,11.00
2023-03-05T13:21:02.659Z,11.21
2023-03-05T13:24:17.985Z,11.50
2023-03-05T13:27:31.328Z,11.69
2023-03-05T13:30:37.599Z,11.24
2023-03-05T13:33:53.426Z,11.74
2023-03-05T13:37:01.868Z,12.05
2023-03-05T13:40:22.070Z,11.71
2023-03-05T13:43:29.736Z,12.62
2023-03-05T13:46:38.760Z,11.72
2023-03-05T13:49:45.528Z,11.71
2023-03-05T13:52:51.843Z,12.24
2023-03-05T13:56:01.232Z,12.61
2023-03-05T13:59:19.036Z,11.20
2023-03-05T14:02:25.490Z,11.59
2023-03-05T14:05:32.645Z,11.32
2023-03-05T14:08:39.352Z,11.83
2023-03-05T14:11:54.384Z,11.83
2023-03-05T14:15:06.947Z,11.69
2023-03-05T14:18:20.847Z,11.48
2023-03-05T14:21:27.830Z,11.69
2023-03-05T14:24:34.226Z,11.88
2023-03-05T14:27:40.740Z,12.10
2023-03-05T14:30:48.944Z,11.21
2023-03-05T14:34:03.180Z,10.38
2023-03-05T14:37:22.634Z,10.73
2023-03-05T14:40:31.109Z,11.05
2023-03-05T14:43:37.345Z,10.24
2023-03-05T14:46:49.545Z,9.51
2023-03-05T14:49:55.842Z,9.38
2023-03-05T14:53:04.763Z,9.34
2023-03-05T14:56:19.719Z,9.38
2023-03-05T14:59:26.043Z,9.17
2023-03-05T15:02:33.929Z,9.09
2023-03-05T15:05:41.135Z,8.93
2023-03-05T15:08:47.765Z,8.73
2023-03-05T15:11:54.171Z,8.51
2023-03-05T15:15:00.388Z,8.66
2023-03-05T15:18:08.474Z,8.88
2023-03-05T15:21:14.917Z,8.53
2023-03-05T15:24:39.565Z,8.76
2023-03-05T15:27:46.627Z,8.53
2023-03-05T15:30:53.190Z,8.48
2023-03-05T15:34:00.615Z,8.16
2023-03-05T15:37:06.743Z,8.34
2023-03-05T15:40:14.235Z,8.28
2023-03-05T15:43:20.970Z,7.84
2023-03-05T15:46:27.510Z,7.99
2023-03-05T15:49:35.041Z,8.13
2023-03-05T15:52:41.263Z,8.34
2023-03-05T15:55:47.290Z,7.78
2023-03-05T15:58:53.740Z,7.80
2023-03-05T16:01:59.954Z,7.83
2023-03-05T16:05:09.102Z,7.50
2023-03-05T16:08:15.565Z,7.27
2023-03-05T16:11:22.729Z,7.32
2023-03-05T16:14:31.626Z,7.45
2023-03-05T16:17:40.250Z,7.33
2023-03-05T16:20:48.864Z,7.41
2023-03-05T16:23:55.067Z,7.09
2023-03-05T16:27:01.515Z,7.05
2023-03-05T16:30:09.208Z,7.13
2023-03-05T16:33:15.558Z,6.92
2023-03-05T16:36:26.078Z,7.17
2023-03-05T16:39:32.275Z,7.28
2023-03-05T16:42:38.705Z,7.32
2023-03-05T16:45:44.967Z,6.99
2023-03-05T16:48:51.642Z,7.01
2023-03-05T16:52:01.432Z,7.35
2023-03-05T16:55:12.283Z,7.28
2023-03-05T16:58:18.591Z,7.42
2023-03-05T17:01:25.922Z,6.96
2023-03-05T17:04:32.365Z,7.16
2023-03-05T17:07:40.454Z,7.55
2023-03-05T17:10:47.224Z,7.31
2023-03-05T17:13:53.587Z,7.22
2023-03-05T17:16:59.440Z,7.63
2023-03-05T17:20:06.881Z,7.48
2023-03-05T17:23:14.718Z,7.51
2023-03-05T17:26:21.719Z,7.31
2023-03-05T17:29:28.119Z,7.32
2023-03-05T17:32:34.331Z,7.32
2023-03-05T17:35:41.116Z,7.17
2023-03-05T17:38:50.340Z,7.31
2023-03-05T17:41:56.602Z,6.98
2023-03-05T17:45:04.597Z,7.00
2023-03-05T17:48:12.522Z,7.27
2023-03-05T17:51:18.923Z,7.19
2023-03-05T17:54:27.003Z,7.06
2023-03-05T17:57:33.419Z,7.10
2023-03-05T18:00:39.588Z,7.05
2023-03-05T18:03:45.815Z,7.18
2023-03-05T18:06:52.278Z,6.99
2023-03-05T18:10:00.493Z,7.02
2023-03-05T18:13:07.211Z,6.93
2023-03-05T18:16:17.005Z,6.77
2023-03-05T18:19:24.049Z,6.56
2023-03-05T18:22:30.222Z,6.71
2023-03-05T18:25:37.852Z,6.57
2023-03-05T18:28:44.658Z,6.50
2023-03-05T18:31:50.764Z,6.63
2023-03-05T18:34:57.126Z,6.45
2023-03-05T18:38:03.467Z,6.53
2023-03-05T18:41:19.902Z,6.46
2023-03-05T18:44:26.935Z,6.24
2023-03-05T18:47:34.114Z,6.38
2023-03-05T18:50:40.377Z,5.99
2023-03-05T18:53:47.650Z,6.17
2023-03-05T18:56:55.064Z,5.99
2023-03-05T19:00:01.252Z,5.93
2023-03-05T19:03:07.617Z,5.85
2023-03-05T19:06:13.793Z,5.85
2023-03-05T19:09:59.625Z,5.81
2023-03-05T19:13:35.917Z,5.79
2023-03-05T19:16:44.266Z,5.79
2023-03-05T19:19:51.923Z,5.96
2023-03-05T19:22:58.113Z,5.82
2023-03-05T19:26:04.653Z,5.82
2023-03-05T19:29:12.844Z,5.78
2023-03-05T19:32:21.171Z,5.75
2023-03-05T19:35:27.470Z,5.87
2023-03-05T19:38:33.752Z,5.63
2023-03-05T19:41:39.935Z,5.55
2023-03-05T19:44:47.508Z,5.79
2023-03-05T19:47:53.880Z,5.73
2023-03-05T19:51:00.396Z,5.62
2023-03-05T19:54:06.707Z,5.59
2023-03-05T19:57:13.177Z,5.74
2023-03-05T20:00:21.977Z,5.72
2023-03-05T20:03:28.045Z,5.73
2023-03-05T20:06:35.288Z,5.75
2023-03-05T20:09:41.760Z,5.42
2023-03-05T20:12:50.554Z,5.62
2023-03-05T20:15:59.057Z,5.70
2023-03-05T20:19:08.849Z,5.61
2023-03-05T20:22:15.334Z,5.55
2023-03-05T20:25:24.909Z,5.40
2023-03-05T20:28:31.022Z,5.42
2023-03-05T20:31:39.404Z,5.43
2023-03-05T20:34:45.662Z,5.54
2023-03-05T20:38:25.175Z,5.35
2023-03-05T20:41:32.138Z,5.41
2023-03-05T20:44:38.434Z,5.44
2023-03-05T20:47:46.602Z,5.23
2023-03-05T20:50:52.997Z,5.21
2023-03-05T20:54:03.373Z,5.15
2023-03-05T20:57:09.722Z,5.11
2023-03-05T21:00:16.851Z,5.09
2023-03-05T21:03:25.621Z,5.25
2023-03-05T21:06:33.210Z,5.24
2023-03-05T21:09:39.635Z,5.23
2023-03-05T21:12:46.615Z,4.86
2023-03-05T21:15:53.525Z,4.77
2023-03-05T21:19:01.241Z,4.68
2023-03-05T21:22:07.413Z,4.82
2023-03-05T21:25:21.177Z,4.58
2023-03-05T21:28:27.558Z,4.59
2023-03-05T21:31:34.410Z,4.56
2023-03-05T21:34:44.324Z,4.55
2023-03-05T21:37:52.674Z,4.29
2023-03-05T21:40:59.888Z,4.42
2023-03-05T21:44:06.734Z,4.44
2023-03-05T21:47:13.845Z,4.52
2023-03-05T21:50:22.213Z,4.54
2023-03-05T21:53:28.450Z,4.45
2023-03-05T21:56:34.918Z,4.31
2023-03-05T21:59:41.558Z,4.27
2023-03-05T22:02:47.853Z,4.38
2023-03-05T22:05:55.941Z,4.22
2023-03-05T22:09:02.213Z,4.16
2023-03-05T22:12:32.330Z,4.10
2023-03-05T22:15:43.043Z,4.24
2023-03-05T22:18:49.337Z,4.25
2023-03-05T22:21:57.757Z,4.31
2023-03-05T22:25:04.744Z,4.16
2023-03-05T22:28:12.117Z,4.09
2023-03-05T22:31:22.971Z,4.06
2023-03-05T22:34:29.242Z,4.17
2023-03-05T22:37:37.118Z,4.14
2023-03-05T22:40:45.337Z,4.21
2023-03-05T22:43:52.036Z,4.13
2023-03-05T22:46:58.098Z,4.12
2023-03-05T22:50:06.085Z,4.20
2023-03-05T22:53:14.305Z,4.26
2023-03-05T22:56:21.742Z,4.30
2023-03-05T22:59:29.989Z,4.21
2023-03-05T23:02:36.642Z,4.12
2023-03-05T23:05:43.391Z,4.18
2023-03-05T23:08:51.487Z,4.06
2023-03-05T23:11:57.498Z,4.16
2023-03-05T23:15:06.008Z,4.12
2023-03-05T23:18:14.421Z,4.01
2023-03-05T23:21:21.013Z,4.10
2023-03-05T23:24:28.623Z,4.07
2023-03-05T23:27:35.089Z,4.16
2023-03-05T23:30:43.245Z,4.20
2023-03-05T23:33:49.341Z,4.28
2023-03-05T23:36:55.757Z,4.34
2023-03-05T23:40:04.314Z,4.25
2023-03-05T23:43:11.050Z,4.14
2023-03-05T23:46:17.452Z,4.12
2023-03-05T23:49:23.793Z,4.15
2023-03-05T23:52:30.232Z,4.01
2023-03-05T23:55:42.534Z,4.14
2023-03-05T23:58:48.824Z,4.23
